ASN logo
Accident description
Last updated: 29 April 2017
Status:Preliminary - official
Date:Thursday 29 December 2016
Time:22:57
Type:Silhouette image of generic C525 model; specific model in this crash may look slightly different
Cessna 525C Citation CJ4
Operator:Superior Beverage Group
Registration: N614SB
C/n / msn: 525C-0072
First flight: 2012
Engines: 2 Williams International FJ44-4A
Crew:Fatalities: 1 / Occupants: 1
Passengers:Fatalities: 5 / Occupants: 5
Total:Fatalities: 6 / Occupants: 6
Airplane damage: Destroyed
Airplane fate: Written off (damaged beyond repair)
Location:3 km (1.9 mls) N off Cleveland-Burke Lakefront Airport, OH (BKL) (   United States of America)
Phase: Initial climb (ICL)
Nature:Private
Departure airport:Cleveland-Burke Lakefront Airport, OH (BKL/KBKL), United States of America
Destination airport:Columbus-Ohio State University Airport, OH (OSU/KOSU), United States of America
Narrative:
A Cessna 525C Citation CJ4 corporate jet, registered to Maverick Air and operated on behalf of the Superior Beverage Group, impacted the waters of Lake Erie shortly after takeoff from Cleveland-Burke Lakefront Airport, Ohio, USA.
The pilot was cleared for takeoff from runway 24R and the controller instructed him to turn right to a heading of 330 degrees and maintain 2,000 feet msl after departure.
ADS-B position data indicated that the takeoff began about 22:56:47 hours. The data depicted the airplane entering a right turn shortly after crossing the runway departure threshold. The airplane became established on a magnetic course of 310 degrees at about 22:57:28. During this time, the airplane reached an altitude of approximately 2,925 feet msl. About 5 seconds later, the airplane entered a descending right turn that continued until the final data point. The final data point was recorded at 22:57:52 and was located 1.83 miles northwest of BKL. The associated altitude was 775 feet msl.

The Coast Guard reported it suspended the search for possible survivors on December 31. Divers retrieved the cockpit voice recorder and pieces of debris on January 6, 2017.

Sources:
» WKYC
» WEWS Twitter feed
» NTSB

METAR Weather report:
03:45 UTC / 22:45 local time:
KBKL 300345Z 26023G32KT 6SM -SN BR SCT012 BKN021 OVC026 01/M02 A2973 RMK AO2 PK WND 26035/0254 SNB0259 P0000 T00061017

03:53 UTC / 22:53 local time:
KBKL 300353Z 26025G31KT 8SM -SN BKN013 BKN022 OVC032 01/M02 A2974 RMK AO2 PK WND 26035/0254 SNB0259 SLP076 P0000 T00061017

04:00 UTC / 23:00 local time:
KBKL 300400Z 26022G31KT 9SM SCT015 BKN023 OVC039 01/M02 A2974 RMK AO2 PK WND 26027/0356 SNE0355 P0000 T00061017


Photos

Add your photo of this accident or aircraft

Map
This map shows the airport of departure and the intended destination of the flight. The line between the airports does not display the exact flight path.
Distance from Cleveland-Burke Lakefront Airport, OH to Columbus-Ohio State University Airport, OH as the crow flies is 197 km (123 miles).

This information is not presented as the Flight Safety Foundation or the Aviation Safety Network’s opinion as to the cause of the accident. It is preliminary and is based on the facts as they are known at this time.
languages: languages

Share

CitationJet

  • 19th loss
  • 10th fatal accident
  • 1806+ built
  • The worst accident
» safety profile